createdAt,value
2018-01-23T00:00:37.224Z,6.64
2018-01-23T00:03:04.626Z,6.69
2018-01-23T00:05:32.259Z,6.65
2018-01-23T00:07:59.659Z,6.67
2018-01-23T00:10:27.067Z,6.67
2018-01-23T00:12:54.472Z,6.62
2018-01-23T00:15:21.863Z,6.58
2018-01-23T00:17:49.276Z,6.65
2018-01-23T00:20:16.689Z,6.67
2018-01-23T00:22:44.107Z,6.73
2018-01-23T00:25:11.518Z,6.65
2018-01-23T00:27:38.926Z,6.59
2018-01-23T00:30:06.337Z,6.71
2018-01-23T00:32:33.723Z,6.76
2018-01-23T00:35:01.124Z,6.62
2018-01-23T00:37:28.674Z,6.62
2018-01-23T00:39:56.060Z,6.71
2018-01-23T00:42:23.464Z,6.74
2018-01-23T00:44:51.152Z,6.74
2018-01-23T00:47:18.891Z,6.76
2018-01-23T00:49:46.288Z,6.71
2018-01-23T00:52:13.696Z,6.67
2018-01-23T00:54:41.211Z,6.66
2018-01-23T00:57:08.608Z,6.56
2018-01-23T00:59:36.018Z,6.56
2018-01-23T01:02:03.771Z,6.72
2018-01-23T01:04:31.172Z,6.67
2018-01-23T01:06:58.564Z,6.64
2018-01-23T01:09:25.972Z,6.55
2018-01-23T01:11:53.363Z,6.61
2018-01-23T01:14:20.783Z,6.60
2018-01-23T01:16:48.196Z,6.55
2018-01-23T01:19:15.702Z,6.61
2018-01-23T01:21:43.108Z,6.68
2018-01-23T01:24:10.517Z,6.67
2018-01-23T01:26:38.029Z,6.69
2018-01-23T01:29:05.456Z,6.62
2018-01-23T01:31:32.855Z,6.59
2018-01-23T01:34:00.264Z,6.68
2018-01-23T01:36:27.672Z,6.73
2018-01-23T01:38:55.072Z,6.63
2018-01-23T01:41:22.657Z,6.51
2018-01-23T01:43:50.066Z,6.64
2018-01-23T01:46:17.459Z,6.66
2018-01-23T01:48:52.640Z,6.63
2018-01-23T01:51:20.248Z,6.62
2018-01-23T01:53:47.650Z,6.63
2018-01-23T01:56:15.056Z,6.49
2018-01-23T01:58:42.448Z,6.61
2018-01-23T02:01:09.836Z,6.61
2018-01-23T02:03:37.308Z,6.55
2018-01-23T02:06:04.706Z,6.69
2018-01-23T02:08:32.124Z,6.61
2018-01-23T02:10:59.524Z,6.61
2018-01-23T02:13:26.927Z,6.58
2018-01-23T02:15:54.328Z,6.65
2018-01-23T02:18:21.732Z,6.77
2018-01-23T02:20:49.141Z,6.59
2018-01-23T02:23:16.551Z,6.70
2018-01-23T02:25:43.957Z,6.55
2018-01-23T02:28:11.347Z,6.52
2018-01-23T02:30:38.762Z,6.70
2018-01-23T02:33:06.162Z,6.57
2018-01-23T02:35:33.567Z,6.46
2018-01-23T02:38:00.972Z,6.49
2018-01-23T02:40:28.435Z,6.62
2018-01-23T02:42:55.855Z,6.58
2018-01-23T02:45:23.250Z,6.47
2018-01-23T02:47:50.646Z,6.42
2018-01-23T02:50:18.048Z,6.54
2018-01-23T02:52:46.352Z,6.40
2018-01-23T02:55:13.775Z,6.45
2018-01-23T02:57:41.178Z,6.45
2018-01-23T03:00:08.581Z,6.46
2018-01-23T03:02:35.973Z,6.38
2018-01-23T03:05:03.380Z,6.48
2018-01-23T03:07:30.788Z,6.40
2018-01-23T03:09:58.188Z,6.50
2018-01-23T03:12:25.593Z,6.53
2018-01-23T03:14:52.989Z,6.51
2018-01-23T03:17:20.431Z,6.49
2018-01-23T03:19:47.820Z,6.44
2018-01-23T03:22:15.229Z,6.51
2018-01-23T03:24:42.632Z,6.49
2018-01-23T03:27:10.785Z,6.49
2018-01-23T03:29:38.196Z,6.43
2018-01-23T03:32:05.644Z,6.30
2018-01-23T03:34:33.049Z,6.34
2018-01-23T03:37:00.451Z,6.51
2018-01-23T03:39:27.848Z,6.40
2018-01-23T03:41:55.255Z,6.45
2018-01-23T03:44:22.655Z,6.35
2018-01-23T03:46:50.066Z,6.48
2018-01-23T03:49:17.466Z,6.37
2018-01-23T03:51:44.872Z,6.38
2018-01-23T03:54:12.265Z,6.40
2018-01-23T03:56:39.672Z,6.36
2018-01-23T03:59:07.072Z,6.43
2018-01-23T04:01:34.860Z,6.35
2018-01-23T04:04:02.247Z,6.37
2018-01-23T04:06:29.660Z,6.27
2018-01-23T04:08:57.060Z,6.31
2018-01-23T04:11:24.467Z,6.27
2018-01-23T04:16:26.043Z,6.18
2018-01-23T04:18:53.446Z,6.26
2018-01-23T04:21:20.865Z,6.28
2018-01-23T04:23:48.261Z,6.28
2018-01-23T04:26:15.668Z,6.25
2018-01-23T04:28:43.216Z,6.29
2018-01-23T04:31:10.620Z,6.33
2018-01-23T04:33:38.018Z,6.32
2018-01-23T04:36:05.532Z,6.35
2018-01-23T04:38:32.915Z,6.39
2018-01-23T04:41:00.347Z,6.40
2018-01-23T04:43:27.753Z,6.37
2018-01-23T04:45:55.154Z,6.44
2018-01-23T04:48:22.568Z,6.30
2018-01-23T04:50:49.955Z,6.26
2018-01-23T04:53:17.364Z,6.25
2018-01-23T04:55:44.752Z,6.23
2018-01-23T04:58:12.158Z,6.27
2018-01-23T05:00:39.610Z,6.21
2018-01-23T05:03:07.017Z,6.25
2018-01-23T05:05:34.479Z,6.25
2018-01-23T05:08:01.920Z,6.27
2018-01-23T05:10:29.341Z,6.26
2018-01-23T05:12:57.543Z,6.17
2018-01-23T05:15:24.940Z,6.23
2018-01-23T05:17:52.335Z,6.21
2018-01-23T05:20:19.745Z,6.08
2018-01-23T05:22:47.144Z,6.08
2018-01-23T05:25:14.540Z,6.18
2018-01-23T05:27:41.950Z,6.09
2018-01-23T05:30:09.349Z,6.18
2018-01-23T05:32:36.751Z,6.20
2018-01-23T05:35:04.181Z,6.27
2018-01-23T05:37:31.904Z,6.10
2018-01-23T05:39:59.295Z,6.18
2018-01-23T05:42:26.704Z,6.03
2018-01-23T05:44:54.118Z,6.21
2018-01-23T05:47:21.524Z,6.20
2018-01-23T05:49:48.929Z,6.20
2018-01-23T05:52:16.325Z,6.23
2018-01-23T05:54:43.724Z,6.24
2018-01-23T05:57:11.125Z,6.07
2018-01-23T05:59:38.528Z,6.13
2018-01-23T06:02:05.926Z,5.91
2018-01-23T06:04:34.120Z,5.86
2018-01-23T06:07:01.513Z,5.83
2018-01-23T06:09:28.933Z,5.93
2018-01-23T06:11:56.343Z,5.92
2018-01-23T06:14:23.752Z,5.77
2018-01-23T06:16:51.154Z,5.63
2018-01-23T06:19:18.559Z,5.58
2018-01-23T06:21:45.964Z,5.54
2018-01-23T06:24:13.373Z,5.67
2018-01-23T06:26:40.770Z,5.56
2018-01-23T06:29:08.186Z,5.62
2018-01-23T06:31:35.592Z,5.50
2018-01-23T06:34:03.024Z,5.45
2018-01-23T06:36:30.420Z,5.43
2018-01-23T06:38:57.829Z,5.53
2018-01-23T06:41:25.325Z,5.45
2018-01-23T06:43:52.788Z,5.43
2018-01-23T06:46:20.265Z,5.61
2018-01-23T06:48:47.659Z,5.49
2018-01-23T06:51:15.069Z,5.60
2018-01-23T06:53:42.542Z,5.62
2018-01-23T06:56:09.935Z,5.67
2018-01-23T06:58:37.397Z,5.84
2018-01-23T07:01:04.831Z,5.60
2018-01-23T07:03:32.920Z,5.56
2018-01-23T07:06:01.254Z,5.86
2018-01-23T07:08:28.657Z,5.96
2018-01-23T07:10:56.063Z,5.78
2018-01-23T07:13:23.460Z,5.59
2018-01-23T07:15:50.875Z,5.58
2018-01-23T07:18:18.268Z,5.58
2018-01-23T07:20:45.668Z,5.54
2018-01-23T07:23:13.247Z,5.59
2018-01-23T07:25:40.641Z,5.69
2018-01-23T07:28:08.041Z,5.67
2018-01-23T07:30:35.441Z,5.92
2018-01-23T07:33:02.844Z,5.98
2018-01-23T07:35:30.244Z,6.10
2018-01-23T07:37:57.641Z,6.05
2018-01-23T07:40:25.046Z,6.06
2018-01-23T07:42:52.506Z,6.16
2018-01-23T07:45:19.924Z,6.28
2018-01-23T07:47:47.323Z,6.14
2018-01-23T07:50:14.723Z,6.21
2018-01-23T07:52:42.123Z,6.23
2018-01-23T07:55:09.523Z,6.11
2018-01-23T07:57:37.040Z,6.25
2018-01-23T08:00:04.436Z,6.19
2018-01-23T08:02:31.848Z,6.28
2018-01-23T08:04:59.347Z,6.36
2018-01-23T08:07:26.727Z,6.11
2018-01-23T08:09:54.144Z,6.20
2018-01-23T08:12:21.536Z,6.30
2018-01-23T08:14:48.967Z,6.36
2018-01-23T08:17:16.376Z,6.45
2018-01-23T08:19:43.766Z,6.40
2018-01-23T08:22:11.264Z,6.37
2018-01-23T08:24:38.668Z,6.19
2018-01-23T08:27:06.075Z,6.26
2018-01-23T08:29:33.476Z,6.37
2018-01-23T08:32:00.886Z,6.26
2018-01-23T08:34:28.283Z,6.04
2018-01-23T08:36:55.692Z,5.98
2018-01-23T08:39:23.093Z,5.90
2018-01-23T08:41:50.502Z,5.81
2018-01-23T08:44:17.904Z,5.75
2018-01-23T08:46:45.460Z,5.76
2018-01-23T08:49:12.862Z,5.76
2018-01-23T08:51:40.271Z,5.66
2018-01-23T08:54:07.667Z,5.51
2018-01-23T08:56:35.069Z,5.48
2018-01-23T08:59:02.491Z,5.56
2018-01-23T09:01:29.895Z,5.65
2018-01-23T09:03:57.297Z,5.56
2018-01-23T09:06:24.716Z,5.54
2018-01-23T09:08:52.120Z,5.60
2018-01-23T09:11:19.652Z,5.63
2018-01-23T09:13:47.045Z,5.81
2018-01-23T09:16:14.444Z,6.08
2018-01-23T09:18:41.972Z,6.11
2018-01-23T09:21:09.389Z,6.19
2018-01-23T09:23:36.929Z,6.26
2018-01-23T09:26:04.328Z,6.39
2018-01-23T09:28:31.741Z,6.62
2018-01-23T09:30:59.159Z,6.78
2018-01-23T09:33:26.568Z,6.74
2018-01-23T09:35:53.976Z,6.68
2018-01-23T09:38:21.393Z,6.84
2018-01-23T09:40:48.784Z,7.07
2018-01-23T09:43:16.421Z,7.03
2018-01-23T09:45:43.836Z,7.05
2018-01-23T09:48:11.272Z,7.15
2018-01-23T09:50:38.663Z,7.12
2018-01-23T09:53:06.081Z,7.26
2018-01-23T09:55:33.594Z,7.24
2018-01-23T09:58:01.014Z,7.26
2018-01-23T10:00:28.407Z,7.20
2018-01-23T10:02:55.816Z,7.02
2018-01-23T10:05:23.217Z,6.96
2018-01-23T10:07:50.628Z,7.01
2018-01-23T10:10:19.032Z,6.96
2018-01-23T10:12:46.450Z,7.18
2018-01-23T10:15:14.957Z,7.27
2018-01-23T10:17:42.448Z,7.32
2018-01-23T10:20:09.845Z,7.43
2018-01-23T10:22:37.259Z,7.38
2018-01-23T10:25:04.656Z,7.51
2018-01-23T10:27:32.060Z,7.44
2018-01-23T10:29:59.458Z,7.50
2018-01-23T10:32:26.871Z,7.57
2018-01-23T10:34:54.371Z,7.75
2018-01-23T10:37:21.773Z,7.84
2018-01-23T10:39:49.226Z,7.78
2018-01-23T10:42:16.633Z,7.95
2018-01-23T10:44:44.082Z,7.89
2018-01-23T10:47:11.436Z,8.03
2018-01-23T10:49:38.845Z,8.22
2018-01-23T10:52:06.249Z,8.47
2018-01-23T10:54:33.669Z,8.65
2018-01-23T10:57:01.051Z,8.55
2018-01-23T10:59:28.465Z,8.57
2018-01-23T11:01:55.891Z,8.70
2018-01-23T11:04:23.289Z,8.65
2018-01-23T11:06:50.692Z,8.65
2018-01-23T11:09:18.101Z,8.64
2018-01-23T11:11:45.500Z,8.70
2018-01-23T11:14:13.091Z,8.69
2018-01-23T11:16:40.488Z,8.54
2018-01-23T11:19:07.900Z,8.48
2018-01-23T11:21:35.294Z,8.56
2018-01-23T11:24:02.703Z,8.67
2018-01-23T11:26:30.153Z,8.70
2018-01-23T11:28:57.561Z,8.85
2018-01-23T11:31:24.962Z,8.90
2018-01-23T11:33:52.674Z,9.20
2018-01-23T11:36:20.083Z,9.54
2018-01-23T11:38:47.496Z,9.37
2018-01-23T11:41:14.899Z,9.24
2018-01-23T11:43:42.304Z,9.15
2018-01-23T11:46:09.739Z,9.34
2018-01-23T11:48:37.225Z,9.30
2018-01-23T11:51:04.638Z,9.33
2018-01-23T11:53:32.029Z,9.21
2018-01-23T11:55:59.436Z,9.28
2018-01-23T11:58:26.832Z,9.36
2018-01-23T12:00:54.242Z,9.49
2018-01-23T12:03:21.638Z,9.63
2018-01-23T12:05:49.050Z,9.87
2018-01-23T12:08:16.472Z,10.13
2018-01-23T12:10:43.897Z,10.31
2018-01-23T12:13:11.322Z,10.34
2018-01-23T12:15:38.724Z,10.15
2018-01-23T12:18:06.128Z,9.93
2018-01-23T12:20:33.538Z,9.70
2018-01-23T12:23:00.937Z,9.54
2018-01-23T12:25:28.347Z,9.31
2018-01-23T12:27:55.746Z,9.29
2018-01-23T12:30:23.168Z,9.61
2018-01-23T12:32:50.580Z,9.52
2018-01-23T12:35:17.981Z,9.43
2018-01-23T12:37:45.389Z,9.55
2018-01-23T12:40:12.787Z,9.65
2018-01-23T12:42:40.192Z,9.51
2018-01-23T12:45:07.593Z,9.51
2018-01-23T12:47:35.007Z,9.27
2018-01-23T12:50:03.121Z,9.21
2018-01-23T12:52:30.525Z,9.09
2018-01-23T12:54:57.933Z,9.17
2018-01-23T12:57:25.327Z,9.23
2018-01-23T12:59:52.748Z,9.19
2018-01-23T13:02:20.167Z,9.31
2018-01-23T13:04:47.564Z,9.30
2018-01-23T13:07:14.969Z,9.29
2018-01-23T13:09:42.635Z,9.25
2018-01-23T13:12:10.134Z,9.13
2018-01-23T13:14:37.684Z,9.24
2018-01-23T13:17:05.104Z,9.26
2018-01-23T13:19:33.427Z,9.22
2018-01-23T13:22:00.828Z,9.20
2018-01-23T13:24:28.227Z,9.33
2018-01-23T13:26:55.677Z,9.06
2018-01-23T13:29:23.983Z,9.09
2018-01-23T13:31:51.390Z,8.98
2018-01-23T13:34:19.649Z,8.96
2018-01-23T13:36:47.067Z,8.99
2018-01-23T13:39:14.492Z,9.10
2018-01-23T13:41:41.910Z,9.44
2018-01-23T13:44:09.304Z,9.66
2018-01-23T13:46:36.808Z,9.99
2018-01-23T13:49:04.209Z,10.14
2018-01-23T13:51:31.615Z,10.11
2018-01-23T13:53:59.005Z,9.82
2018-01-23T13:56:26.417Z,9.60
2018-01-23T13:58:53.817Z,9.67
2018-01-23T14:01:21.230Z,9.47
2018-01-23T14:03:48.628Z,9.19
2018-01-23T14:06:16.045Z,9.14
2018-01-23T14:08:44.329Z,9.04
2018-01-23T14:11:11.748Z,9.18
2018-01-23T14:13:39.140Z,9.16
2018-01-23T14:16:06.552Z,9.03
2018-01-23T14:18:33.952Z,9.01
2018-01-23T14:21:01.410Z,9.09
2018-01-23T14:23:28.795Z,9.08
2018-01-23T14:25:56.183Z,9.13
2018-01-23T14:28:23.584Z,9.01
2018-01-23T14:30:50.988Z,9.08
2018-01-23T14:33:18.475Z,8.94
2018-01-23T14:35:45.870Z,8.97
2018-01-23T14:38:13.276Z,8.85
2018-01-23T14:40:40.675Z,8.77
2018-01-23T14:43:08.094Z,8.84
2018-01-23T14:45:35.486Z,8.86
2018-01-23T14:48:02.900Z,8.69
2018-01-23T14:50:30.296Z,8.83
2018-01-23T14:52:57.696Z,8.65
2018-01-23T14:55:25.104Z,8.52
2018-01-23T14:57:52.515Z,8.52
2018-01-23T15:00:20.395Z,8.49
2018-01-23T15:02:47.798Z,8.47
2018-01-23T15:05:15.192Z,8.40
2018-01-23T15:07:42.600Z,8.48
2018-01-23T15:10:09.991Z,8.44
2018-01-23T15:12:37.416Z,8.42
2018-01-23T15:15:04.934Z,8.49
2018-01-23T15:17:32.348Z,8.52
2018-01-23T15:19:59.748Z,8.46
2018-01-23T15:22:27.160Z,8.42
2018-01-23T15:24:54.720Z,8.47
2018-01-23T15:27:23.013Z,8.42
2018-01-23T15:29:50.463Z,8.36
2018-01-23T15:32:17.886Z,8.33
2018-01-23T15:34:45.268Z,8.51
2018-01-23T15:37:12.675Z,8.41
2018-01-23T15:39:40.096Z,8.30
2018-01-23T15:42:07.499Z,8.16
2018-01-23T15:44:34.913Z,8.12
2018-01-23T15:47:02.392Z,8.20
2018-01-23T15:49:30.032Z,8.16
2018-01-23T15:51:57.432Z,8.16
2018-01-23T15:54:24.836Z,8.03
2018-01-23T15:56:52.232Z,8.06
2018-01-23T15:59:19.635Z,7.97
2018-01-23T16:01:47.790Z,7.92
2018-01-23T16:04:15.290Z,7.88
2018-01-23T16:06:42.737Z,7.86
2018-01-23T16:09:10.167Z,7.79
2018-01-23T16:11:37.848Z,7.80
2018-01-23T16:14:05.241Z,7.77
2018-01-23T16:16:32.664Z,7.72
2018-01-23T16:19:00.054Z,7.90
2018-01-23T16:21:27.458Z,7.72
2018-01-23T16:23:54.864Z,7.67
2018-01-23T16:26:22.255Z,7.62
2018-01-23T16:28:49.660Z,7.65
2018-01-23T16:31:17.210Z,7.75
2018-01-23T16:33:44.625Z,7.73
2018-01-23T16:36:12.020Z,7.67
2018-01-23T16:38:39.425Z,7.64
2018-01-23T16:41:06.828Z,7.61
2018-01-23T16:43:34.269Z,7.58
2018-01-23T16:46:01.671Z,7.58
2018-01-23T16:48:29.061Z,7.63
2018-01-23T16:50:56.522Z,7.51
2018-01-23T16:53:23.912Z,7.64
2018-01-23T16:55:51.333Z,7.66
2018-01-23T16:58:18.729Z,7.69
2018-01-23T17:00:46.140Z,7.55
2018-01-23T17:03:13.540Z,7.65
2018-01-23T17:05:40.951Z,7.76
2018-01-23T17:08:08.348Z,7.74
2018-01-23T17:10:35.762Z,7.73
2018-01-23T17:13:03.181Z,7.65
2018-01-23T17:15:30.596Z,7.48
2018-01-23T17:17:57.988Z,7.63
2018-01-23T17:20:25.396Z,7.42
2018-01-23T17:22:52.792Z,7.30
2018-01-23T17:25:21.925Z,7.35
2018-01-23T17:27:49.405Z,7.31
2018-01-23T17:30:16.815Z,7.23
2018-01-23T17:32:44.309Z,6.99
2018-01-23T17:35:11.760Z,6.88
2018-01-23T17:37:39.173Z,6.72
2018-01-23T17:40:06.588Z,6.60
2018-01-23T17:42:34.040Z,6.50
2018-01-23T17:45:01.475Z,6.43
2018-01-23T17:47:28.876Z,6.39
2018-01-23T17:49:58.169Z,6.18
2018-01-23T17:52:25.957Z,6.10
2018-01-23T17:54:53.357Z,5.98
2018-01-23T17:57:21.812Z,5.97
2018-01-23T17:59:49.260Z,5.98
2018-01-23T18:02:16.656Z,5.95
2018-01-23T18:04:44.117Z,5.84
2018-01-23T18:07:11.698Z,5.65
2018-01-23T18:09:39.132Z,5.67
2018-01-23T18:12:06.660Z,5.72
2018-01-23T18:14:34.052Z,5.81
2018-01-23T18:17:01.499Z,5.85
2018-01-23T18:19:29.669Z,5.61
2018-01-23T18:21:57.132Z,5.56
2018-01-23T18:24:25.167Z,5.39
2018-01-23T18:26:53.261Z,5.32
2018-01-23T18:29:20.897Z,5.37
2018-01-23T18:31:48.336Z,5.25
2018-01-23T18:34:15.802Z,5.12
2018-01-23T18:36:43.215Z,5.26
2018-01-23T18:39:10.628Z,5.23
2018-01-23T18:41:38.049Z,5.10
2018-01-23T18:44:05.557Z,4.95
2018-01-23T18:46:32.972Z,4.86
2018-01-23T18:49:00.397Z,4.98
2018-01-23T18:51:27.813Z,4.94
2018-01-23T18:53:55.628Z,4.89
2018-01-23T18:56:23.041Z,4.91
2018-01-23T18:58:50.502Z,4.89
2018-01-23T19:01:17.955Z,4.84
2018-01-23T19:03:45.364Z,4.97
2018-01-23T19:06:12.772Z,5.07
2018-01-23T19:08:40.243Z,5.01
2018-01-23T19:11:07.681Z,4.94
2018-01-23T19:13:35.077Z,4.91
2018-01-23T19:16:02.471Z,5.08
2018-01-23T19:18:30.001Z,5.03
2018-01-23T19:20:58.412Z,4.97
2018-01-23T19:23:25.935Z,4.94
2018-01-23T19:25:53.325Z,4.92
2018-01-23T19:28:20.790Z,5.02
2018-01-23T19:30:48.248Z,5.01
2018-01-23T19:33:15.655Z,5.03
2018-01-23T19:35:43.052Z,5.06
2018-01-23T19:38:10.515Z,5.11
2018-01-23T19:40:37.902Z,5.14
2018-01-23T19:43:05.697Z,5.23
2018-01-23T19:45:33.147Z,5.33
2018-01-23T19:48:00.604Z,5.41
2018-01-23T19:50:28.039Z,5.29
2018-01-23T19:52:55.431Z,5.39
2018-01-23T19:55:22.887Z,5.44
2018-01-23T19:57:50.335Z,5.48
2018-01-23T20:00:17.712Z,5.47
2018-01-23T20:02:45.124Z,5.54
2018-01-23T20:05:12.528Z,5.71
2018-01-23T20:07:39.932Z,5.68
2018-01-23T20:10:07.392Z,5.68
2018-01-23T20:12:34.806Z,5.75
2018-01-23T20:15:02.269Z,5.76
2018-01-23T20:17:29.735Z,5.75
2018-01-23T20:19:57.195Z,5.50
2018-01-23T20:22:24.576Z,5.45
2018-01-23T20:24:53.557Z,5.45
2018-01-23T20:27:20.947Z,5.43
2018-01-23T20:29:48.600Z,5.55
2018-01-23T20:32:16.053Z,5.53
2018-01-23T20:34:43.466Z,5.56
2018-01-23T20:37:10.928Z,5.53
2018-01-23T20:39:38.383Z,5.56
2018-01-23T20:42:05.882Z,5.59
2018-01-23T20:44:33.846Z,5.69
2018-01-23T20:47:01.294Z,5.71
2018-01-23T20:49:28.738Z,5.60
2018-01-23T20:51:56.229Z,5.65
2018-01-23T20:54:23.632Z,5.63
2018-01-23T20:56:51.236Z,5.68
2018-01-23T20:59:18.701Z,5.65
2018-01-23T21:01:46.080Z,5.76
2018-01-23T21:04:13.592Z,5.71
2018-01-23T21:06:41.028Z,5.67
2018-01-23T21:09:08.385Z,5.76
2018-01-23T21:11:35.867Z,5.80
2018-01-23T21:14:03.341Z,5.84
2018-01-23T21:16:30.723Z,5.91
2018-01-23T21:18:58.176Z,5.94
2018-01-23T21:21:25.614Z,6.00
2018-01-23T21:23:53.013Z,6.16
2018-01-23T21:26:20.436Z,6.08
2018-01-23T21:28:47.846Z,6.18
2018-01-23T21:31:15.298Z,6.10
2018-01-23T21:33:43.178Z,6.08
2018-01-23T21:36:10.749Z,6.17
2018-01-23T21:38:38.263Z,6.10
2018-01-23T21:41:05.786Z,6.16
2018-01-23T21:43:33.172Z,6.17
2018-01-23T21:46:00.587Z,6.08
2018-01-23T21:48:27.992Z,6.12
2018-01-23T21:50:55.484Z,6.24
2018-01-23T21:53:22.916Z,6.19
2018-01-23T21:55:50.331Z,6.22
2018-01-23T21:58:17.807Z,6.18
2018-01-23T22:02:41.600Z,6.28
2018-01-23T22:05:09.005Z,6.41
2018-01-23T22:07:36.399Z,6.38
2018-01-23T22:10:04.304Z,6.48
2018-01-23T22:12:31.697Z,6.55
2018-01-23T22:14:59.163Z,6.57
2018-01-23T22:17:26.544Z,6.70
2018-01-23T22:19:54.797Z,6.72
2018-01-23T22:22:22.187Z,6.82
2018-01-23T22:24:49.602Z,6.77
2018-01-23T22:27:17.017Z,6.85
2018-01-23T22:29:44.415Z,6.73
2018-01-23T22:32:11.824Z,6.60
2018-01-23T22:34:39.215Z,6.49
2018-01-23T22:37:06.623Z,6.54
2018-01-23T22:39:34.398Z,6.54
2018-01-23T22:42:01.812Z,6.48
2018-01-23T22:44:29.213Z,6.44
2018-01-23T22:46:56.648Z,6.58
2018-01-23T22:49:24.048Z,6.56
2018-01-23T22:51:52.232Z,6.57
2018-01-23T22:54:19.625Z,6.51
2018-01-23T22:56:47.056Z,6.68
2018-01-23T22:59:14.450Z,6.59
2018-01-23T23:01:41.853Z,6.64
2018-01-23T23:04:09.266Z,6.67
2018-01-23T23:06:36.657Z,6.72
2018-01-23T23:09:04.058Z,6.60
2018-01-23T23:11:31.640Z,6.54
2018-01-23T23:13:59.033Z,6.56
2018-01-23T23:16:26.444Z,6.46
2018-01-23T23:18:53.837Z,6.50
2018-01-23T23:21:21.431Z,6.48
2018-01-23T23:23:48.820Z,6.48
2018-01-23T23:26:16.295Z,6.41
2018-01-23T23:28:43.776Z,6.33
2018-01-23T23:31:11.184Z,6.30
2018-01-23T23:33:38.631Z,6.41
2018-01-23T23:36:06.027Z,6.30
2018-01-23T23:38:33.420Z,6.29
2018-01-23T23:41:00.816Z,6.38
2018-01-23T23:43:28.240Z,6.20
2018-01-23T23:45:55.640Z,6.23
2018-01-23T23:48:23.045Z,6.34
2018-01-23T23:50:50.442Z,6.39
2018-01-23T23:53:17.849Z,6.35
2018-01-23T23:55:45.270Z,6.45
2018-01-23T23:58:12.675Z,6.43
